createdAt,value
2023-03-15T00:01:09.892Z,1.48
2023-03-15T00:02:30.501Z,1.42
2023-03-15T00:03:51.158Z,1.47
2023-03-15T00:05:12.376Z,1.58
2023-03-15T00:06:33.348Z,2.03
2023-03-15T00:07:54.042Z,1.33
2023-03-15T00:09:14.621Z,1.60
2023-03-15T00:10:35.349Z,2.00
2023-03-15T00:11:57.420Z,1.50
2023-03-15T00:13:18.157Z,1.55
2023-03-15T00:14:38.879Z,1.60
2023-03-15T00:16:02.379Z,2.20
2023-03-15T00:17:22.901Z,1.85
2023-03-15T00:18:44.285Z,1.85
2023-03-15T00:20:06.194Z,1.48
2023-03-15T00:22:47.216Z,1.38
2023-03-15T00:24:07.605Z,2.00
2023-03-15T00:25:28.575Z,2.03
2023-03-15T00:26:48.924Z,1.60
2023-03-15T00:28:11.062Z,1.75
2023-03-15T00:29:31.633Z,3.05
2023-03-15T00:31:03.782Z,1.60
2023-03-15T00:32:24.530Z,2.10
2023-03-15T00:33:45.621Z,1.80
2023-03-15T00:35:06.415Z,2.15
2023-03-15T00:36:27.076Z,1.92
2023-03-15T00:37:47.905Z,1.52
2023-03-15T00:39:08.147Z,1.52
2023-03-15T00:40:28.538Z,1.75
2023-03-15T00:41:49.301Z,1.60
2023-03-15T00:43:11.148Z,1.88
2023-03-15T00:44:32.511Z,1.80
2023-03-15T00:45:53.048Z,1.90
2023-03-15T00:47:14.884Z,1.67
2023-03-15T00:48:35.756Z,1.40
2023-03-15T00:49:56.489Z,1.60
2023-03-15T00:51:18.778Z,1.67
2023-03-15T00:52:39.477Z,1.60
2023-03-15T00:54:00.489Z,1.60
2023-03-15T00:55:21.317Z,1.83
2023-03-15T00:56:41.565Z,1.55
2023-03-15T00:58:02.200Z,1.90
2023-03-15T00:59:24.436Z,2.53
2023-03-15T01:00:45.368Z,1.77
2023-03-15T01:02:06.464Z,2.33
2023-03-15T01:03:27.263Z,1.90
2023-03-15T01:04:48.005Z,1.70
2023-03-15T01:06:12.750Z,1.70
2023-03-15T01:07:33.605Z,1.88
2023-03-15T01:08:54.462Z,1.92
2023-03-15T01:10:15.850Z,1.80
2023-03-15T01:11:36.656Z,2.40
2023-03-15T01:12:57.423Z,1.95
2023-03-15T01:14:18.727Z,2.63
2023-03-15T01:15:40.757Z,1.77
2023-03-15T01:17:01.356Z,1.75
2023-03-15T01:18:22.050Z,1.52
2023-03-15T01:19:42.953Z,1.80
2023-03-15T01:21:05.932Z,1.70
2023-03-15T01:22:27.089Z,1.30
2023-03-15T01:23:47.897Z,1.88
2023-03-15T01:25:09.019Z,2.17
2023-03-15T01:26:34.034Z,1.67
2023-03-15T01:27:54.814Z,1.95
2023-03-15T01:29:15.398Z,1.83
2023-03-15T01:30:36.275Z,2.25
2023-03-15T01:31:58.140Z,1.50
2023-03-15T01:33:19.049Z,1.98
2023-03-15T01:34:39.681Z,2.20
2023-03-15T01:36:00.606Z,1.40
2023-03-15T01:37:21.045Z,1.63
2023-03-15T01:38:41.937Z,1.65
2023-03-15T01:40:02.520Z,1.45
2023-03-15T01:41:23.246Z,1.95
2023-03-15T01:42:54.928Z,1.67
2023-03-15T01:44:16.098Z,1.58
2023-03-15T01:45:59.961Z,1.63
2023-03-15T01:47:23.623Z,1.52
2023-03-15T01:48:46.472Z,1.58
2023-03-15T01:50:09.324Z,1.20
2023-03-15T01:51:34.771Z,1.27
2023-03-15T01:52:55.282Z,1.48
2023-03-15T01:54:18.376Z,1.40
2023-03-15T01:55:39.637Z,1.10
2023-03-15T01:57:04.092Z,1.30
2023-03-15T01:58:26.615Z,1.30
2023-03-15T01:59:50.810Z,1.35
2023-03-15T02:01:11.626Z,1.35
2023-03-15T02:02:33.615Z,1.20
2023-03-15T02:03:56.713Z,1.13
2023-03-15T02:05:21.455Z,1.00
2023-03-15T02:06:42.593Z,1.35
2023-03-15T02:08:04.396Z,1.67
2023-03-15T02:09:27.189Z,1.45
2023-03-15T02:10:50.911Z,1.20
2023-03-15T02:12:11.547Z,1.50
2023-03-15T02:13:33.721Z,1.15
2023-03-15T02:14:55.087Z,1.70
2023-03-15T02:16:16.275Z,1.50
2023-03-15T02:17:40.296Z,1.13
2023-03-15T02:19:00.930Z,1.45
2023-03-15T02:20:30.811Z,1.37
2023-03-15T02:21:57.908Z,1.55
2023-03-15T02:23:21.154Z,1.40
2023-03-15T02:24:46.023Z,1.48
2023-03-15T02:26:16.436Z,1.38
2023-03-15T02:27:39.790Z,1.67
2023-03-15T02:29:00.952Z,1.48
2023-03-15T02:30:21.367Z,1.67
2023-03-15T02:31:42.009Z,1.50
2023-03-15T02:33:05.558Z,1.52
2023-03-15T02:34:26.283Z,1.60
2023-03-15T02:35:46.752Z,1.73
2023-03-15T02:37:07.504Z,1.50
2023-03-15T02:38:27.897Z,1.55
2023-03-15T02:39:48.440Z,1.60
2023-03-15T02:41:09.015Z,1.67
2023-03-15T02:42:29.824Z,1.77
2023-03-15T02:43:54.282Z,1.88
2023-03-15T02:45:15.222Z,1.60
2023-03-15T02:46:36.126Z,2.03
2023-03-15T02:47:56.816Z,2.00
2023-03-15T02:49:19.012Z,2.35
2023-03-15T02:50:39.895Z,2.70
2023-03-15T02:52:00.428Z,2.25
2023-03-15T02:53:21.030Z,2.30
2023-03-15T02:54:41.500Z,2.08
2023-03-15T02:56:01.863Z,1.90
2023-03-15T02:57:22.641Z,2.25
2023-03-15T02:58:43.870Z,2.17
2023-03-15T03:01:27.138Z,2.47
2023-03-15T03:02:48.270Z,2.30
2023-03-15T03:04:09.324Z,2.47
2023-03-15T03:05:29.786Z,2.92
2023-03-15T03:06:51.541Z,3.00
2023-03-15T03:08:11.941Z,3.03
2023-03-15T03:09:32.243Z,2.33
2023-03-15T03:10:52.745Z,2.83
2023-03-15T03:12:13.357Z,2.60
2023-03-15T03:13:33.962Z,2.60
2023-03-15T03:14:54.718Z,2.75
2023-03-15T03:16:16.586Z,2.40
2023-03-15T03:17:37.425Z,2.92
2023-03-15T03:18:57.936Z,2.73
2023-03-15T03:20:18.814Z,2.80
2023-03-15T03:21:39.706Z,2.60
2023-03-15T03:23:00.137Z,2.50
2023-03-15T03:24:20.966Z,2.63
2023-03-15T03:25:41.229Z,1.88
2023-03-15T03:27:01.673Z,1.92
2023-03-15T03:28:22.586Z,1.52
2023-03-15T03:29:43.510Z,1.55
2023-03-15T03:31:03.990Z,1.80
2023-03-15T03:32:26.298Z,1.70
2023-03-15T03:33:46.925Z,1.33
2023-03-15T03:35:08.322Z,1.60
2023-03-15T03:36:28.695Z,1.60
2023-03-15T03:37:49.364Z,1.42
2023-03-15T03:39:10.061Z,1.42
2023-03-15T03:40:30.363Z,1.42
2023-03-15T03:41:50.980Z,1.38
2023-03-15T03:43:11.719Z,1.40
2023-03-15T03:44:32.410Z,1.15
2023-03-15T03:45:52.859Z,1.35
2023-03-15T03:47:13.552Z,1.40
2023-03-15T03:48:35.643Z,1.77
2023-03-15T03:49:56.323Z,1.10
2023-03-15T03:51:17.176Z,1.75
2023-03-15T03:52:37.781Z,1.17
2023-03-15T03:53:58.462Z,1.55
2023-03-15T03:55:18.924Z,1.90
2023-03-15T03:56:40.634Z,1.38
2023-03-15T03:58:01.370Z,1.77
2023-03-15T03:59:22.052Z,1.63
2023-03-15T04:00:42.999Z,1.80
2023-03-15T04:02:04.070Z,1.52
2023-03-15T04:03:24.730Z,1.90
2023-03-15T04:04:46.749Z,1.70
2023-03-15T04:06:07.561Z,1.88
2023-03-15T04:07:28.196Z,1.38
2023-03-15T04:08:49.013Z,1.60
2023-03-15T04:10:11.040Z,1.80
2023-03-15T04:11:31.321Z,1.65
2023-03-15T04:12:52.745Z,2.03
2023-03-15T04:15:34.059Z,1.83
2023-03-15T04:16:54.881Z,1.88
2023-03-15T04:18:15.863Z,1.25
2023-03-15T04:19:36.239Z,1.80
2023-03-15T04:20:58.044Z,1.73
2023-03-15T04:22:18.326Z,1.95
2023-03-15T04:23:38.952Z,1.63
2023-03-15T04:24:59.551Z,2.22
2023-03-15T04:26:20.179Z,2.08
2023-03-15T04:27:40.566Z,2.40
2023-03-15T04:29:01.401Z,1.55
2023-03-15T04:30:21.995Z,2.70
2023-03-15T04:31:42.746Z,2.10
2023-03-15T04:33:03.538Z,2.08
2023-03-15T04:34:24.015Z,1.90
2023-03-15T04:35:44.650Z,2.00
2023-03-15T04:37:07.229Z,2.13
2023-03-15T04:38:28.117Z,2.28
2023-03-15T04:39:48.635Z,2.00
2023-03-15T04:41:09.485Z,1.55
2023-03-15T04:42:29.991Z,2.35
2023-03-15T04:43:50.874Z,1.73
2023-03-15T04:45:11.574Z,1.90
2023-03-15T04:46:32.700Z,2.88
2023-03-15T04:47:53.384Z,2.67
2023-03-15T04:49:13.637Z,2.15
2023-03-15T04:50:34.287Z,1.83
2023-03-15T04:51:55.156Z,1.98
2023-03-15T04:53:18.248Z,2.38
2023-03-15T04:54:38.740Z,1.77
2023-03-15T04:55:59.462Z,1.80
2023-03-15T04:57:19.721Z,2.05
2023-03-15T04:58:40.192Z,1.65
2023-03-15T05:00:01.017Z,2.05
2023-03-15T05:01:22.127Z,2.00
2023-03-15T05:02:42.456Z,2.17
2023-03-15T05:04:02.881Z,1.63
2023-03-15T05:05:23.676Z,2.05
2023-03-15T05:06:43.912Z,2.28
2023-03-15T05:08:04.827Z,2.00
2023-03-15T05:09:26.823Z,1.60
2023-03-15T05:10:47.326Z,2.08
2023-03-15T05:12:08.321Z,1.92
2023-03-15T05:13:29.169Z,1.88
2023-03-15T05:14:49.917Z,1.70
2023-03-15T05:16:10.379Z,1.83
2023-03-15T05:17:30.856Z,1.98
2023-03-15T05:18:51.131Z,2.00
2023-03-15T05:20:12.359Z,2.00
2023-03-15T05:22:53.607Z,2.03
2023-03-15T05:24:13.954Z,1.83
2023-03-15T05:25:37.566Z,2.20
2023-03-15T05:26:59.354Z,2.13
2023-03-15T05:28:20.243Z,2.28
2023-03-15T05:29:42.322Z,2.08
2023-03-15T05:31:02.917Z,2.38
2023-03-15T05:32:23.775Z,2.55
2023-03-15T05:33:44.506Z,2.10
2023-03-15T05:35:06.568Z,2.15
2023-03-15T05:36:26.961Z,2.20
2023-03-15T05:37:47.747Z,2.85
2023-03-15T05:39:08.557Z,3.10
2023-03-15T05:40:29.345Z,2.30
2023-03-15T05:41:50.950Z,2.40
2023-03-15T05:43:11.638Z,2.65
2023-03-15T05:44:32.540Z,2.85
2023-03-15T05:45:54.354Z,2.60
2023-03-15T05:47:14.958Z,3.22
2023-03-15T05:48:35.314Z,2.87
2023-03-15T05:49:56.089Z,2.90
2023-03-15T05:51:16.840Z,2.30
2023-03-15T05:52:37.693Z,3.63
2023-03-15T05:53:58.255Z,2.60
2023-03-15T05:55:18.736Z,2.70
2023-03-15T05:56:39.217Z,3.05
2023-03-15T05:58:01.206Z,2.80
2023-03-15T05:59:21.903Z,3.00
2023-03-15T06:00:42.261Z,2.63
2023-03-15T06:02:03.397Z,2.88
2023-03-15T06:03:23.993Z,3.40
2023-03-15T06:04:44.648Z,2.87
2023-03-15T06:06:05.456Z,3.40
2023-03-15T06:07:29.049Z,2.60
2023-03-15T06:08:49.598Z,2.70
2023-03-15T06:10:11.238Z,2.95
2023-03-15T06:11:32.023Z,3.38
2023-03-15T06:12:52.349Z,3.88
2023-03-15T06:14:14.214Z,3.25
2023-03-15T06:15:34.541Z,3.13
2023-03-15T06:16:55.427Z,3.20
2023-03-15T06:18:15.992Z,3.45
2023-03-15T06:19:37.906Z,3.40
2023-03-15T06:20:58.455Z,3.63
2023-03-15T06:22:19.073Z,3.13
2023-03-15T06:23:39.782Z,4.70
2023-03-15T06:25:00.229Z,3.97
2023-03-15T06:26:20.637Z,3.97
2023-03-15T06:27:41.253Z,3.72
2023-03-15T06:29:02.181Z,3.50
2023-03-15T06:30:24.036Z,3.70
2023-03-15T06:31:44.901Z,4.50
2023-03-15T06:33:05.743Z,3.70
2023-03-15T06:34:26.672Z,3.00
2023-03-15T06:35:47.497Z,3.40
2023-03-15T06:37:08.409Z,3.22
2023-03-15T06:38:29.340Z,3.90
2023-03-15T06:39:49.766Z,3.38
2023-03-15T06:41:10.373Z,3.00
2023-03-15T06:42:30.993Z,3.60
2023-03-15T06:43:51.711Z,3.53
2023-03-15T06:45:12.403Z,3.65
2023-03-15T06:46:34.563Z,4.43
2023-03-15T06:47:55.574Z,4.18
2023-03-15T06:49:15.925Z,3.40
2023-03-15T06:50:46.453Z,3.58
2023-03-15T06:52:08.408Z,3.60
2023-03-15T06:53:28.876Z,3.65
2023-03-15T06:54:49.651Z,4.43
2023-03-15T06:56:10.448Z,3.27
2023-03-15T06:57:31.293Z,3.53
2023-03-15T06:58:51.626Z,4.03
2023-03-15T07:00:13.177Z,3.85
2023-03-15T07:01:34.980Z,4.18
2023-03-15T07:02:55.972Z,3.65
2023-03-15T07:04:16.751Z,3.40
2023-03-15T07:05:37.489Z,4.03
2023-03-15T07:06:57.858Z,4.25
2023-03-15T07:08:18.660Z,4.30
2023-03-15T07:09:39.308Z,4.63
2023-03-15T07:10:59.832Z,3.95
2023-03-15T07:12:20.653Z,3.90
2023-03-15T07:13:41.333Z,4.40
2023-03-15T07:15:02.196Z,4.32
2023-03-15T07:16:22.864Z,3.45
2023-03-15T07:17:44.851Z,4.23
2023-03-15T07:19:05.374Z,3.65
2023-03-15T07:20:26.315Z,3.63
2023-03-15T07:21:47.133Z,3.65
2023-03-15T07:23:07.833Z,4.13
2023-03-15T07:24:28.611Z,3.65
2023-03-15T07:25:54.937Z,3.75
2023-03-15T07:27:19.348Z,4.20
2023-03-15T07:28:40.354Z,3.60
2023-03-15T07:30:01.100Z,3.30
2023-03-15T07:31:21.882Z,3.55
2023-03-15T07:32:44.134Z,3.58
2023-03-15T07:34:04.765Z,3.60
2023-03-15T07:35:25.514Z,3.50
2023-03-15T07:36:46.145Z,3.63
2023-03-15T07:38:06.857Z,3.30
2023-03-15T07:39:27.559Z,3.40
2023-03-15T07:40:48.375Z,3.40
2023-03-15T07:42:09.584Z,3.45
2023-03-15T07:43:30.248Z,3.47
2023-03-15T07:44:51.129Z,3.38
2023-03-15T07:46:12.162Z,3.60
2023-03-15T07:47:33.111Z,4.55
2023-03-15T07:48:55.185Z,4.13
2023-03-15T07:50:17.156Z,4.07
2023-03-15T07:51:38.075Z,3.78
2023-03-15T07:52:58.643Z,4.15
2023-03-15T07:54:19.418Z,3.65
2023-03-15T07:55:39.884Z,3.88
2023-03-15T07:57:00.917Z,3.40
2023-03-15T07:58:21.496Z,3.35
2023-03-15T07:59:42.413Z,3.80
2023-03-15T08:01:05.789Z,3.53
2023-03-15T08:02:27.652Z,3.70
2023-03-15T08:03:50.012Z,3.72
2023-03-15T08:05:11.921Z,2.67
2023-03-15T08:06:32.747Z,3.20
2023-03-15T08:07:54.110Z,4.05
2023-03-15T08:09:14.560Z,3.65
2023-03-15T08:10:35.200Z,3.35
2023-03-15T08:11:56.292Z,3.25
2023-03-15T08:13:17.014Z,3.03
2023-03-15T08:14:37.749Z,3.33
2023-03-15T08:15:58.180Z,3.22
2023-03-15T08:17:18.787Z,3.35
2023-03-15T08:18:39.858Z,2.45
2023-03-15T08:20:00.569Z,3.10
2023-03-15T08:21:22.765Z,2.75
2023-03-15T08:22:43.598Z,3.60
2023-03-15T08:24:04.541Z,4.30
2023-03-15T08:25:25.888Z,2.90
2023-03-15T08:26:46.805Z,2.92
2023-03-15T08:28:07.492Z,2.85
2023-03-15T08:29:28.258Z,3.05
2023-03-15T08:30:48.921Z,2.97
2023-03-15T08:32:09.769Z,2.60
2023-03-15T08:33:30.555Z,3.75
2023-03-15T08:34:51.508Z,3.38
2023-03-15T08:36:12.230Z,2.87
2023-03-15T08:37:34.572Z,3.45
2023-03-15T08:38:55.196Z,2.80
2023-03-15T08:40:16.944Z,2.85
2023-03-15T08:41:37.492Z,3.05
2023-03-15T08:42:58.196Z,2.65
2023-03-15T08:44:18.878Z,2.22
2023-03-15T08:45:56.811Z,2.47
2023-03-15T08:47:20.373Z,2.63
2023-03-15T08:48:41.230Z,2.90
2023-03-15T08:50:01.996Z,2.50
2023-03-15T08:51:22.643Z,2.75
2023-03-15T08:52:44.762Z,1.73
2023-03-15T08:54:05.460Z,3.00
2023-03-15T08:55:26.045Z,2.27
2023-03-15T08:56:46.362Z,1.90
2023-03-15T08:58:07.168Z,2.40
2023-03-15T08:59:32.333Z,2.73
2023-03-15T09:00:53.091Z,3.35
2023-03-15T09:02:13.929Z,3.88
2023-03-15T09:03:34.552Z,2.03
2023-03-15T09:04:55.221Z,3.58
2023-03-15T09:06:15.927Z,2.22
2023-03-15T09:07:36.504Z,2.40
2023-03-15T09:08:58.389Z,2.03
2023-03-15T09:10:19.792Z,3.20
2023-03-15T09:11:40.263Z,2.88
2023-03-15T09:13:00.699Z,2.33
2023-03-15T09:14:21.339Z,2.17
2023-03-15T09:15:42.010Z,2.30
2023-03-15T09:17:02.618Z,2.33
2023-03-15T09:18:23.514Z,2.13
2023-03-15T09:19:44.383Z,2.10
2023-03-15T09:21:05.759Z,2.58
2023-03-15T09:22:38.608Z,1.90
2023-03-15T09:24:01.229Z,2.35
2023-03-15T09:25:23.635Z,2.28
2023-03-15T09:26:44.467Z,2.78
2023-03-15T09:28:05.181Z,2.33
2023-03-15T09:29:25.580Z,2.47
2023-03-15T09:30:46.321Z,2.35
2023-03-15T09:32:07.469Z,2.50
2023-03-15T09:33:28.178Z,2.40
2023-03-15T09:34:48.912Z,1.97
2023-03-15T09:36:09.412Z,2.60
2023-03-15T09:37:30.029Z,3.28
2023-03-15T09:38:50.415Z,2.10
2023-03-15T09:40:19.174Z,2.50
2023-03-15T09:41:42.985Z,2.20
2023-03-15T09:43:12.846Z,2.08
2023-03-15T09:44:39.238Z,2.03
2023-03-15T09:46:11.072Z,1.95
2023-03-15T09:48:58.846Z,2.45
2023-03-15T09:50:21.349Z,2.28
2023-03-15T09:51:46.140Z,2.10
2023-03-15T09:53:10.961Z,1.85
2023-03-15T09:54:37.567Z,2.60
2023-03-15T09:55:59.708Z,1.42
2023-03-15T09:57:23.715Z,1.60
2023-03-15T09:58:44.817Z,1.77
2023-03-15T10:00:07.863Z,1.83
2023-03-15T10:01:31.240Z,2.05
2023-03-15T10:02:56.705Z,1.65
2023-03-15T10:04:25.527Z,2.38
2023-03-15T10:05:49.377Z,2.05
2023-03-15T10:07:14.346Z,2.03
2023-03-15T10:08:35.070Z,2.40
2023-03-15T10:09:56.164Z,2.67
2023-03-15T10:11:23.849Z,2.22
2023-03-15T10:12:48.878Z,3.03
2023-03-15T10:14:18.128Z,2.03
2023-03-15T10:15:44.095Z,2.30
2023-03-15T10:17:11.149Z,2.05
2023-03-15T10:18:42.878Z,1.63
2023-03-15T10:21:33.848Z,1.63
2023-03-15T10:22:58.249Z,1.60
2023-03-15T10:24:20.058Z,1.83
2023-03-15T10:25:41.244Z,2.00
2023-03-15T10:27:10.353Z,1.73
2023-03-15T10:28:33.781Z,2.10
2023-03-15T10:29:57.739Z,2.15
2023-03-15T10:31:22.622Z,2.13
2023-03-15T10:34:14.463Z,2.20
2023-03-15T10:36:55.086Z,2.30
2023-03-15T10:38:15.995Z,3.17
2023-03-15T10:39:36.545Z,2.75
2023-03-15T10:40:59.232Z,2.78
2023-03-15T10:42:28.900Z,2.67
2023-03-15T10:43:58.209Z,2.90
2023-03-15T10:45:21.190Z,3.42
2023-03-15T10:46:42.026Z,2.38
2023-03-15T10:48:02.588Z,2.67
2023-03-15T10:49:22.379Z,2.85
2023-03-15T10:50:43.452Z,2.30
2023-03-15T10:52:05.006Z,2.85
2023-03-15T10:53:26.057Z,2.70
2023-03-15T10:54:50.115Z,2.42
2023-03-15T10:56:19.615Z,2.40
2023-03-15T10:57:50.871Z,2.58
2023-03-15T10:59:15.822Z,2.90
2023-03-15T11:00:36.724Z,2.90
2023-03-15T11:02:18.085Z,2.47
2023-03-15T11:03:38.888Z,2.45
2023-03-15T11:05:02.554Z,2.42
2023-03-15T11:06:27.678Z,2.40
2023-03-15T11:07:55.898Z,2.28
2023-03-15T11:09:18.410Z,2.58
2023-03-15T11:10:39.376Z,2.13
2023-03-15T11:12:00.892Z,2.97
2023-03-15T11:13:24.724Z,2.65
2023-03-15T11:14:48.827Z,1.95
2023-03-15T11:16:20.786Z,2.30
2023-03-15T11:17:43.670Z,1.75
2023-03-15T11:19:07.641Z,2.05
2023-03-15T11:20:31.800Z,2.28
2023-03-15T11:21:53.465Z,1.90
2023-03-15T11:23:15.495Z,2.00
2023-03-15T11:24:36.482Z,2.08
2023-03-15T11:25:56.984Z,2.10
2023-03-15T11:27:20.005Z,1.92
2023-03-15T11:28:44.929Z,1.67
2023-03-15T11:30:06.646Z,2.00
2023-03-15T11:31:27.985Z,1.63
2023-03-15T11:32:49.076Z,1.75
2023-03-15T11:34:13.444Z,1.60
2023-03-15T11:35:38.777Z,2.50
2023-03-15T11:37:08.502Z,1.77
2023-03-15T11:38:33.049Z,1.95
2023-03-15T11:40:08.949Z,2.10
2023-03-15T11:41:36.798Z,1.85
2023-03-15T11:43:01.194Z,1.85
2023-03-15T11:44:28.717Z,1.58
2023-03-15T11:45:52.640Z,1.73
2023-03-15T11:47:18.600Z,1.45
2023-03-15T11:48:44.166Z,2.13
2023-03-15T11:50:05.331Z,1.77
2023-03-15T11:51:26.058Z,1.48
2023-03-15T11:52:48.969Z,1.45
2023-03-15T11:54:13.321Z,1.88
2023-03-15T11:55:34.187Z,1.77
2023-03-15T11:56:55.850Z,2.13
2023-03-15T11:59:50.456Z,1.60
2023-03-15T12:01:12.530Z,2.00
2023-03-15T12:02:46.515Z,1.50
2023-03-15T12:04:37.223Z,1.95
2023-03-15T12:06:01.640Z,1.40
2023-03-15T12:07:37.150Z,1.70
2023-03-15T12:08:58.242Z,1.70
2023-03-15T12:10:38.942Z,1.95
2023-03-15T12:12:07.236Z,1.70
2023-03-15T12:13:30.011Z,1.58
2023-03-15T12:15:02.155Z,1.52
2023-03-15T12:16:26.689Z,1.55
2023-03-15T12:17:50.705Z,1.83
2023-03-15T12:19:15.078Z,1.55
2023-03-15T12:20:38.313Z,1.60
2023-03-15T12:22:00.894Z,1.30
2023-03-15T12:23:30.509Z,1.40
2023-03-15T12:24:51.242Z,1.60
2023-03-15T12:26:25.895Z,1.70
2023-03-15T12:29:14.558Z,1.48
2023-03-15T12:30:40.912Z,2.53
2023-03-15T12:32:08.487Z,1.42
2023-03-15T12:33:31.243Z,1.55
2023-03-15T12:34:53.335Z,1.65
2023-03-15T12:36:27.361Z,1.52
2023-03-15T12:37:49.292Z,1.55
2023-03-15T12:39:22.301Z,1.50
2023-03-15T12:40:50.907Z,1.60
2023-03-15T12:42:48.541Z,1.55
2023-03-15T12:44:21.666Z,2.15
2023-03-15T12:45:45.055Z,1.55
2023-03-15T12:47:09.005Z,1.55
2023-03-15T12:48:31.062Z,1.60
2023-03-15T12:49:51.782Z,1.50
2023-03-15T12:51:12.578Z,1.50
2023-03-15T12:52:40.570Z,1.50
2023-03-15T12:54:01.531Z,1.70
2023-03-15T12:55:22.066Z,1.35
2023-03-15T12:56:48.403Z,1.58
2023-03-15T12:58:10.684Z,1.80
2023-03-15T12:59:36.842Z,1.60
2023-03-15T13:01:01.041Z,1.50
2023-03-15T13:02:42.811Z,1.63
2023-03-15T13:04:04.465Z,1.60
2023-03-15T13:05:28.920Z,1.48
2023-03-15T13:07:02.738Z,1.67
2023-03-15T13:08:24.808Z,1.50
2023-03-15T13:09:58.213Z,1.50
2023-03-15T13:11:22.581Z,1.73
2023-03-15T13:12:46.713Z,1.50
2023-03-15T13:14:28.741Z,1.50
2023-03-15T13:16:05.044Z,1.50
2023-03-15T13:17:35.536Z,1.20
2023-03-15T13:19:01.322Z,1.20
2023-03-15T13:20:37.459Z,1.48
2023-03-15T13:22:06.813Z,1.23
2023-03-15T13:23:29.123Z,1.20
2023-03-15T13:24:56.306Z,1.67
2023-03-15T13:26:33.058Z,1.13
2023-03-15T13:27:55.993Z,0.90
2023-03-15T13:29:19.878Z,1.45
2023-03-15T13:30:41.345Z,1.25
2023-03-15T13:32:13.118Z,1.00
2023-03-15T13:33:33.592Z,1.40
2023-03-15T13:34:57.360Z,1.17
2023-03-15T13:36:18.979Z,1.10
2023-03-15T13:39:00.551Z,1.30
2023-03-15T13:40:21.294Z,1.35
2023-03-15T13:41:42.000Z,1.13
2023-03-15T13:43:02.716Z,0.90
2023-03-15T13:44:24.773Z,1.02
2023-03-15T13:45:45.342Z,1.38
2023-03-15T13:47:07.666Z,1.30
2023-03-15T13:48:30.334Z,0.93
2023-03-15T13:49:52.272Z,1.20
2023-03-15T13:51:18.450Z,1.60
2023-03-15T13:52:40.943Z,1.30
2023-03-15T13:54:04.912Z,1.40
2023-03-15T13:55:31.948Z,1.35
2023-03-15T13:56:58.968Z,1.50
2023-03-15T13:58:20.373Z,0.88
2023-03-15T13:59:44.266Z,1.58
2023-03-15T14:01:08.449Z,1.30
2023-03-15T14:02:35.403Z,1.20
2023-03-15T14:03:58.685Z,1.17
2023-03-15T14:05:21.418Z,1.35
2023-03-15T14:06:41.753Z,1.13
2023-03-15T14:08:04.257Z,1.05
2023-03-15T14:09:26.384Z,1.40
2023-03-15T14:10:58.467Z,1.08
2023-03-15T14:12:21.728Z,1.08
2023-03-15T14:13:50.047Z,1.27
2023-03-15T14:15:16.933Z,0.80
2023-03-15T14:16:57.229Z,1.40
2023-03-15T14:18:23.715Z,1.02
2023-03-15T14:19:52.365Z,1.20
2023-03-15T14:21:15.738Z,1.00
2023-03-15T14:22:36.473Z,0.98
2023-03-15T14:23:56.867Z,0.97
2023-03-15T14:25:21.894Z,1.17
2023-03-15T14:26:42.838Z,1.30
2023-03-15T14:28:05.461Z,1.15
2023-03-15T14:29:28.609Z,1.15
2023-03-15T14:30:54.342Z,1.27
2023-03-15T14:32:24.953Z,1.00
2023-03-15T14:33:52.835Z,0.88
2023-03-15T14:35:20.910Z,1.35
2023-03-15T14:36:42.791Z,1.20
2023-03-15T14:38:07.636Z,1.20
2023-03-15T14:39:30.686Z,1.38
2023-03-15T14:40:52.236Z,1.70
2023-03-15T14:42:12.962Z,1.10
2023-03-15T14:43:33.806Z,1.17
2023-03-15T14:44:54.528Z,1.13
2023-03-15T14:46:15.582Z,1.33
2023-03-15T14:47:45.439Z,1.23
2023-03-15T14:49:22.204Z,1.10
2023-03-15T14:50:44.529Z,1.42
2023-03-15T14:52:06.624Z,0.90
2023-03-15T14:53:32.522Z,0.90
2023-03-15T14:54:53.354Z,1.17
2023-03-15T14:56:14.276Z,0.93
2023-03-15T14:57:34.912Z,1.00
2023-03-15T14:58:55.631Z,0.90
2023-03-15T15:00:18.150Z,1.05
2023-03-15T15:01:39.186Z,1.13
2023-03-15T15:02:59.926Z,1.25
2023-03-15T15:04:22.266Z,0.93
2023-03-15T15:05:42.829Z,0.70
2023-03-15T15:07:03.735Z,1.00
2023-03-15T15:08:24.929Z,1.00
2023-03-15T15:09:50.283Z,1.13
2023-03-15T15:11:10.857Z,0.95
2023-03-15T15:12:31.288Z,1.00
2023-03-15T15:13:52.033Z,1.20
2023-03-15T15:15:16.884Z,0.80
2023-03-15T15:16:37.688Z,1.00
2023-03-15T15:17:58.216Z,1.10
2023-03-15T15:19:19.025Z,1.05
2023-03-15T15:20:42.379Z,0.88
2023-03-15T15:22:03.067Z,0.98
2023-03-15T15:23:25.897Z,1.00
2023-03-15T15:24:46.465Z,1.40
2023-03-15T15:26:12.014Z,0.95
2023-03-15T15:27:32.602Z,1.27
2023-03-15T15:28:53.502Z,0.90
2023-03-15T15:30:16.440Z,1.55
2023-03-15T15:31:37.526Z,1.20
2023-03-15T15:32:58.343Z,1.15
2023-03-15T15:34:19.157Z,1.27
2023-03-15T15:35:41.529Z,1.30
2023-03-15T15:37:02.091Z,1.33
2023-03-15T15:38:23.913Z,1.37
2023-03-15T15:39:44.470Z,1.42
2023-03-15T15:41:05.492Z,2.03
2023-03-15T15:42:26.434Z,1.40
2023-03-15T15:43:47.296Z,1.55
2023-03-15T15:45:11.907Z,1.70
2023-03-15T15:46:33.873Z,1.83
2023-03-15T15:47:54.655Z,1.67
2023-03-15T15:49:15.754Z,2.20
2023-03-15T15:50:36.898Z,2.03
2023-03-15T15:51:59.030Z,1.85
2023-03-15T15:53:19.886Z,2.03
2023-03-15T15:54:40.583Z,1.60
2023-03-15T15:56:02.030Z,1.58
2023-03-15T15:57:22.832Z,1.55
2023-03-15T15:58:43.681Z,1.60
2023-03-15T16:00:05.398Z,1.63
2023-03-15T16:01:26.320Z,2.17
2023-03-15T16:02:47.560Z,2.00
2023-03-15T16:04:08.139Z,2.00
2023-03-15T16:05:30.278Z,1.88
2023-03-15T16:08:21.115Z,2.35
2023-03-15T16:09:42.358Z,2.50
2023-03-15T16:12:24.809Z,2.22
2023-03-15T16:15:07.039Z,2.20
2023-03-15T16:16:27.606Z,2.50
2023-03-15T16:17:48.176Z,2.10
2023-03-15T16:19:09.388Z,2.42
2023-03-15T16:20:30.080Z,2.40
2023-03-15T16:21:52.114Z,2.47
2023-03-15T16:23:18.080Z,2.10
2023-03-15T16:24:40.528Z,2.72
2023-03-15T16:26:01.430Z,2.15
2023-03-15T16:27:24.645Z,2.33
2023-03-15T16:28:45.174Z,2.25
2023-03-15T16:30:07.478Z,2.75
2023-03-15T16:31:28.251Z,2.53
2023-03-15T16:32:49.276Z,2.13
2023-03-15T16:34:10.868Z,2.45
2023-03-15T16:35:34.161Z,2.50
2023-03-15T16:36:54.853Z,2.53
2023-03-15T16:38:18.618Z,2.83
2023-03-15T16:39:39.440Z,2.40
2023-03-15T16:41:00.801Z,2.30
2023-03-15T16:42:21.183Z,2.67
2023-03-15T16:43:42.190Z,3.03
2023-03-15T16:45:05.453Z,2.70
2023-03-15T16:46:26.119Z,3.22
2023-03-15T16:47:47.000Z,2.80
2023-03-15T16:49:08.175Z,3.15
2023-03-15T16:50:29.319Z,3.35
2023-03-15T16:51:51.397Z,3.08
2023-03-15T16:53:13.013Z,3.10
2023-03-15T16:54:41.336Z,3.22
2023-03-15T16:56:02.153Z,3.25
2023-03-15T16:57:23.568Z,2.90
2023-03-15T16:58:44.717Z,3.08
2023-03-15T17:00:06.805Z,3.92
2023-03-15T17:01:27.734Z,3.63
2023-03-15T17:02:49.865Z,3.50
2023-03-15T17:04:11.453Z,3.65
2023-03-15T17:05:32.549Z,3.38
2023-03-15T17:06:53.802Z,3.72
2023-03-15T17:08:17.561Z,3.72
2023-03-15T17:09:40.558Z,3.50
2023-03-15T17:11:01.273Z,3.60
2023-03-15T17:12:24.936Z,3.78
2023-03-15T17:13:45.790Z,3.70
2023-03-15T17:15:07.138Z,4.22
2023-03-15T17:16:28.297Z,3.90
2023-03-15T17:17:49.573Z,4.05
2023-03-15T17:19:11.681Z,4.10
2023-03-15T17:20:32.947Z,4.00
2023-03-15T17:21:53.873Z,4.30
2023-03-15T17:23:14.546Z,4.18
2023-03-15T17:24:36.122Z,3.80
2023-03-15T17:25:58.823Z,4.20
2023-03-15T17:27:23.337Z,4.10
2023-03-15T17:28:45.757Z,4.50
2023-03-15T17:30:15.861Z,4.13
2023-03-15T17:31:36.897Z,3.58
2023-03-15T17:32:57.874Z,3.83
2023-03-15T17:34:20.010Z,3.72
2023-03-15T17:35:44.510Z,3.70
2023-03-15T17:37:05.403Z,4.07
2023-03-15T17:38:29.378Z,3.83
2023-03-15T17:39:50.572Z,3.80
2023-03-15T17:41:18.122Z,4.35
2023-03-15T17:42:39.144Z,4.00
2023-03-15T17:44:00.157Z,3.85
2023-03-15T17:45:22.534Z,3.92
2023-03-15T17:46:43.847Z,4.32
2023-03-15T17:48:05.003Z,4.10
2023-03-15T17:49:26.260Z,4.38
2023-03-15T17:50:46.925Z,4.68
2023-03-15T17:52:12.208Z,4.65
2023-03-15T17:53:33.105Z,4.47
2023-03-15T17:54:53.712Z,4.65
2023-03-15T17:56:16.337Z,4.13
2023-03-15T17:57:40.387Z,4.43
2023-03-15T17:59:03.948Z,4.35
2023-03-15T18:00:25.293Z,4.28
2023-03-15T18:01:46.247Z,4.93
2023-03-15T18:03:07.272Z,4.70
2023-03-15T18:04:27.852Z,5.00
2023-03-15T18:05:48.855Z,5.43
2023-03-15T18:07:09.525Z,5.13
2023-03-15T18:08:30.710Z,4.95
2023-03-15T18:09:51.234Z,4.63
2023-03-15T18:11:17.224Z,4.93
2023-03-15T18:12:38.655Z,4.97
2023-03-15T18:13:59.529Z,5.20
2023-03-15T18:15:22.117Z,5.10
2023-03-15T18:16:43.081Z,5.80
2023-03-15T18:18:06.384Z,5.28
2023-03-15T18:19:27.436Z,6.38
2023-03-15T18:20:48.191Z,5.43
2023-03-15T18:22:14.845Z,6.47
2023-03-15T18:23:35.983Z,5.07
2023-03-15T18:24:56.998Z,5.78
2023-03-15T18:26:20.121Z,6.22
2023-03-15T18:27:40.974Z,6.57
2023-03-15T18:29:01.850Z,7.00
2023-03-15T18:30:24.703Z,6.40
2023-03-15T18:31:45.615Z,6.90
2023-03-15T18:33:06.135Z,6.20
2023-03-15T18:34:26.883Z,6.30
2023-03-15T18:35:47.564Z,7.85
2023-03-15T18:37:08.095Z,7.00
2023-03-15T18:38:28.740Z,6.57